Time;durP1;ratioP1;P1;durP2;ratioP2;P2;SDS_P1;SDS_P2;PMS_P1;PMS_P2;Temp;Humidity;BMP_temperature;BMP_pressure;BME280_temperature;BME280_humidity;BME280_pressure;Samples;Min_cycle;Max_cycle;Signal;HPM_P1;HPM_P2
2023/08/24 03:01:26;;;;;;;1.50;1.40;;;26.20;58.40;;;;;;5398174;23;46141;-92
2023/08/24 03:03:52;;;;;;;1.70;1.60;;;26.10;58.50;;;;;;4848420;28;45443;-82
2023/08/24 03:06:17;;;;;;;1.67;1.25;;;26.20;58.50;;;;;;4870989;28;46824;-82
2023/08/24 03:08:43;;;;;;;1.67;1.48;;;26.20;58.50;;;;;;4895872;28;45359;-84
2023/08/24 03:11:08;;;;;;;2.08;1.58;;;26.20;58.50;;;;;;4881758;29;45024;-86
2023/08/24 03:13:36;;;;;;;1.95;1.35;;;26.20;58.50;;;;;;4868947;29;44873;-84
2023/08/24 03:16:05;;;;;;;1.55;1.45;;;26.20;58.40;;;;;;4857375;29;45807;-86
2023/08/24 03:18:31;;;;;;;1.35;1.20;;;26.20;58.40;;;;;;4862646;29;45570;-82
2023/08/24 03:20:56;;;;;;;2.15;1.35;;;26.20;58.50;;;;;;4880785;28;45436;-80
2023/08/24 03:23:22;;;;;;;1.70;1.27;;;26.10;58.40;;;;;;4886872;29;45708;-81
2023/08/24 03:25:48;;;;;;;1.70;1.30;;;26.20;58.40;;;;;;4847664;29;47246;-81
2023/08/24 03:28:13;;;;;;;2.92;1.20;;;26.20;58.40;;;;;;4882800;29;45403;-83
2023/08/24 03:30:45;;;;;;;1.73;1.20;;;26.10;58.30;;;;;;4868413;28;44677;-87
2023/08/24 03:33:11;;;;;;;1.95;1.30;;;26.20;58.40;;;;;;4881361;28;45229;-82
2023/08/24 03:35:37;;;;;;;1.75;1.35;;;26.20;58.40;;;;;;4880085;29;47008;-80
2023/08/24 03:38:03;;;;;;;2.17;1.48;;;26.20;58.40;;;;;;4885091;29;45298;-81
2023/08/24 03:40:30;;;;;;;2.67;1.40;;;26.20;59.00;;;;;;4863014;29;44717;-88
2023/08/24 03:42:55;;;;;;;1.85;1.20;;;26.20;58.40;;;;;;4899859;28;45149;-84
2023/08/24 03:45:21;;;;;;;1.40;1.30;;;26.20;58.40;;;;;;4868093;29;45274;-85
2023/08/24 03:47:47;;;;;;;1.60;1.33;;;26.10;58.30;;;;;;4853031;29;45512;-82
2023/08/24 03:50:15;;;;;;;1.95;1.30;;;26.10;58.30;;;;;;4879858;29;45247;-89
2023/08/24 03:52:41;;;;;;;1.20;1.10;;;26.20;58.30;;;;;;4881616;29;45021;-84
2023/08/24 03:55:10;;;;;;;1.38;1.15;;;26.10;58.80;;;;;;4896391;28;45476;-90
2023/08/24 03:57:37;;;;;;;1.40;1.30;;;26.10;58.20;;;;;;4890554;28;45255;-82
2023/08/24 04:00:12;;;;;;;1.98;1.48;;;26.10;58.20;;;;;;4872372;29;44910;-89
2023/08/24 04:02:38;;;;;;;2.20;1.38;;;26.10;58.20;;;;;;4859767;29;45545;-87
2023/08/24 04:05:07;;;;;;;1.90;1.30;;;26.10;58.20;;;;;;4869528;29;45302;-83
2023/08/24 04:07:36;;;;;;;3.30;1.42;;;26.10;58.20;;;;;;4856702;29;45092;-86
2023/08/24 04:10:07;;;;;;;1.52;1.40;;;26.10;58.20;;;;;;4880257;29;45280;-82
2023/08/24 04:12:33;;;;;;;1.88;1.23;;;26.10;58.20;;;;;;4881172;28;44866;-86
2023/08/24 04:14:58;;;;;;;1.30;1.20;;;26.10;58.20;;;;;;4858532;28;45244;-87
2023/08/24 04:17:24;;;;;;;1.55;1.30;;;26.10;58.20;;;;;;4873397;29;45554;-81
2023/08/24 04:19:50;;;;;;;1.75;1.40;;;26.10;58.20;;;;;;4867583;29;45014;-83
2023/08/24 04:22:15;;;;;;;1.38;1.27;;;26.10;58.20;;;;;;4848384;29;45365;-85
2023/08/24 04:24:41;;;;;;;1.83;1.73;;;26.10;58.20;;;;;;4869173;29;46984;-84
2023/08/24 04:27:06;;;;;;;2.28;1.33;;;26.10;58.10;;;;;;4879562;29;45859;-83
2023/08/24 04:29:32;;;;;;;2.92;1.30;;;26.10;58.10;;;;;;4876167;29;44919;-84
2023/08/24 04:31:58;;;;;;;1.25;1.13;;;26.10;58.10;;;;;;4846024;29;45351;-83
2023/08/24 04:34:23;;;;;;;2.22;1.52;;;26.10;58.10;;;;;;4879281;29;45699;-86
2023/08/24 04:36:49;;;;;;;1.35;1.25;;;26.10;58.10;;;;;;4876125;29;46084;-84
2023/08/24 04:39:15;;;;;;;1.85;1.55;;;26.10;58.10;;;;;;4856007;28;45448;-82
2023/08/24 04:41:40;;;;;;;2.65;1.27;;;26.10;58.10;;;;;;4878623;29;45637;-81
2023/08/24 04:44:07;;;;;;;1.58;1.48;;;26.10;58.10;;;;;;4897304;28;46365;-88
2023/08/24 04:46:33;;;;;;;2.72;1.55;;;26.10;58.10;;;;;;4861305;28;45648;-83
2023/08/24 04:48:59;;;;;;;2.88;1.38;;;26.10;58.10;;;;;;4867520;28;45480;-85
2023/08/24 04:51:24;;;;;;;1.55;1.40;;;26.10;58.10;;;;;;4850469;29;45222;-84
2023/08/24 04:53:50;;;;;;;2.30;1.20;;;26.10;58.10;;;;;;4873527;29;45416;-82
2023/08/24 04:56:18;;;;;;;1.35;1.25;;;26.10;58.10;;;;;;4862796;29;45237;-81
2023/08/24 04:58:57;;;;;;;1.50;1.20;;;26.10;58.10;;;;;;4880198;29;45588;-84
2023/08/24 05:01:25;;;;;;;1.63;1.50;;;26.10;57.90;;;;;;4854157;29;45331;-82
2023/08/24 05:03:52;;;;;;;1.40;1.27;;;26.00;58.00;;;;;;4876271;29;47282;-80
2023/08/24 05:06:18;;;;;;;1.63;1.38;;;26.10;58.10;;;;;;4862862;29;45234;-81
2023/08/24 05:08:43;;;;;;;1.40;1.30;;;26.10;58.00;;;;;;4856438;29;45409;-82
2023/08/24 05:11:19;;;;;;;1.55;1.05;;;26.10;58.00;;;;;;4882760;28;45720;-84
2023/08/24 05:13:45;;;;;;;1.40;1.30;;;26.00;57.90;;;;;;4881827;29;46063;-84
2023/08/24 05:16:11;;;;;;;1.30;1.20;;;26.00;58.00;;;;;;4848631;29;45126;-82
2023/08/24 05:18:37;;;;;;;1.85;1.35;;;26.10;58.10;;;;;;4858471;28;44889;-83
2023/08/24 05:21:05;;;;;;;1.45;1.27;;;26.10;58.10;;;;;;4879444;28;45581;-82
2023/08/24 05:23:33;;;;;;;2.28;1.10;;;26.00;58.00;;;;;;4847546;29;47465;-81
2023/08/24 05:25:59;;;;;;;1.92;1.40;;;26.10;58.00;;;;;;4891783;29;45613;-83
2023/08/24 05:28:26;;;;;;;1.50;1.38;;;26.10;58.00;;;;;;4858694;29;45393;-82
2023/08/24 05:30:55;;;;;;;2.75;1.40;;;26.10;58.10;;;;;;4889422;28;45460;-83
2023/08/24 05:33:21;;;;;;;1.42;1.20;;;26.00;58.00;;;;;;4880290;29;46172;-83
2023/08/24 05:35:47;;;;;;;1.70;1.40;;;26.00;58.00;;;;;;4859063;29;45130;-84
2023/08/24 05:38:13;;;;;;;2.65;1.38;;;26.00;58.00;;;;;;4852809;29;45150;-84
2023/08/24 05:40:39;;;;;;;1.83;1.10;;;26.00;58.00;;;;;;4869319;29;45184;-82
2023/08/24 05:43:05;;;;;;;1.30;1.20;;;26.00;58.00;;;;;;4830357;29;45161;-81
2023/08/24 05:45:31;;;;;;;2.10;1.27;;;26.00;58.00;;;;;;4861523;29;44981;-82
2023/08/24 05:47:56;;;;;;;1.65;1.10;;;26.00;58.00;;;;;;4846624;29;45240;-83
2023/08/24 05:50:22;;;;;;;1.50;1.40;;;26.00;58.00;;;;;;4862593;28;45426;-81
2023/08/24 05:52:47;;;;;;;1.95;1.50;;;26.00;58.00;;;;;;4894076;28;45617;-83
2023/08/24 05:55:13;;;;;;;1.30;1.15;;;26.00;58.00;;;;;;4860511;29;45360;-88
2023/08/24 05:57:39;;;;;;;1.52;1.33;;;26.00;58.60;;;;;;4862467;29;45228;-80
2023/08/24 06:00:09;;;;;;;1.95;1.50;;;26.00;58.00;;;;;;4857962;28;45095;-82
2023/08/24 06:02:35;;;;;;;1.50;1.40;;;26.00;58.00;;;;;;4874171;29;45276;-81
2023/08/24 06:05:04;;;;;;;1.88;1.58;;;26.00;58.00;;;;;;4847293;29;45157;-82
2023/08/24 06:07:30;;;;;;;1.60;1.50;;;26.00;58.00;;;;;;4837056;29;45514;-83
2023/08/24 06:09:59;;;;;;;1.23;1.05;;;26.00;58.00;;;;;;4830039;29;45832;-83
2023/08/24 06:12:24;;;;;;;1.60;1.50;;;26.00;58.00;;;;;;4869589;29;46372;-82
2023/08/24 06:14:50;;;;;;;2.72;1.45;;;26.00;58.00;;;;;;4858443;29;45255;-83
2023/08/24 06:17:15;;;;;;;1.50;1.40;;;26.00;58.00;;;;;;4875480;29;45004;-81
2023/08/24 06:19:41;;;;;;;1.77;1.13;;;26.00;58.00;;;;;;4862599;29;44961;-82
2023/08/24 06:22:07;;;;;;;1.45;1.27;;;26.00;58.00;;;;;;4861390;28;45667;-81
2023/08/24 06:24:32;;;;;;;2.58;1.80;;;26.00;58.00;;;;;;4864443;29;45206;-82
2023/08/24 06:26:58;;;;;;;1.48;1.23;;;26.00;58.00;;;;;;4847389;29;46048;-83
2023/08/24 06:29:23;;;;;;;1.60;1.50;;;26.00;58.00;;;;;;4850432;29;45368;-82
2023/08/24 06:31:49;;;;;;;2.00;1.33;;;26.00;58.00;;;;;;4841853;29;45574;-83
2023/08/24 06:34:14;;;;;;;2.20;1.60;;;26.00;58.00;;;;;;4878209;29;45409;-81
2023/08/24 06:36:40;;;;;;;2.13;1.50;;;25.90;57.90;;;;;;4850936;29;45166;-82
2023/08/24 06:39:05;;;;;;;2.03;1.50;;;25.90;57.90;;;;;;4872259;29;45184;-81
2023/08/24 06:41:35;;;;;;;2.58;1.52;;;26.00;58.00;;;;;;4874431;29;46167;-83
2023/08/24 06:44:01;;;;;;;2.55;1.30;;;26.00;58.00;;;;;;4867395;29;45403;-82
2023/08/24 06:46:26;;;;;;;2.67;1.50;;;26.00;58.00;;;;;;4879373;29;45615;-81
2023/08/24 06:48:52;;;;;;;5.43;1.65;;;26.00;58.00;;;;;;4869497;29;45283;-85
2023/08/24 06:51:17;;;;;;;1.35;1.25;;;26.00;58.00;;;;;;4877136;29;46664;-82
2023/08/24 06:53:43;;;;;;;2.97;1.80;;;26.00;58.00;;;;;;4867820;28;44758;-88
2023/08/24 06:56:08;;;;;;;2.72;1.50;;;25.90;57.90;;;;;;4865271;29;44919;-83
2023/08/24 06:58:34;;;;;;;1.60;1.42;;;26.00;58.00;;;;;;4857613;29;45194;-82
2023/08/24 07:01:00;;;;;;;1.50;1.40;;;26.00;58.00;;;;;;4851544;29;45564;-86
2023/08/24 07:03:26;;;;;;;2.72;1.40;;;25.90;57.90;;;;;;4864607;29;44975;-86
2023/08/24 07:05:52;;;;;;;2.13;1.60;;;26.00;58.00;;;;;;4851378;29;45297;-83
2023/08/24 07:08:17;;;;;;;2.67;1.50;;;26.00;58.00;;;;;;4862652;29;44634;-82
2023/08/24 07:10:43;;;;;;;1.85;1.50;;;26.00;58.00;;;;;;4868345;29;45552;-83
2023/08/24 07:13:09;;;;;;;2.17;1.38;;;25.90;57.90;;;;;;4859896;29;44964;-84
2023/08/24 07:15:34;;;;;;;1.95;1.50;;;26.00;58.00;;;;;;4864179;29;44890;-86
2023/08/24 07:18:05;;;;;;;2.20;1.50;;;25.90;57.90;;;;;;4869905;29;45923;-83
2023/08/24 07:20:32;;;;;;;2.70;1.50;;;26.00;57.90;;;;;;4860271;29;46060;-84
2023/08/24 07:22:57;;;;;;;2.05;1.50;;;25.90;57.90;;;;;;4867322;29;45095;-83
2023/08/24 07:25:23;;;;;;;1.70;1.60;;;26.00;58.00;;;;;;4895246;28;45245;-86
2023/08/24 07:27:48;;;;;;;1.75;1.55;;;25.90;57.90;;;;;;4854823;29;45749;-85
2023/08/24 07:30:14;;;;;;;1.40;1.30;;;26.00;58.00;;;;;;4850245;28;47335;-83
2023/08/24 07:32:41;;;;;;;1.52;1.40;;;26.00;58.00;;;;;;4846388;29;45175;-85
2023/08/24 07:35:09;;;;;;;1.90;1.40;;;25.90;57.90;;;;;;4877155;29;45313;-87
2023/08/24 07:37:35;;;;;;;1.48;1.38;;;26.00;57.90;;;;;;4877230;29;45289;-82
2023/08/24 07:40:04;;;;;;;2.53;1.50;;;25.90;57.90;;;;;;4874158;29;45971;-89
2023/08/24 07:42:29;;;;;;;2.78;1.50;;;25.90;57.90;;;;;;4839653;28;44732;-81
2023/08/24 07:44:55;;;;;;;1.60;1.50;;;26.00;58.00;;;;;;4863489;28;45135;-81
2023/08/24 07:47:20;;;;;;;2.22;1.60;;;25.90;57.90;;;;;;4867802;29;45275;-83
2023/08/24 07:49:46;;;;;;;1.60;1.50;;;25.90;57.90;;;;;;4857601;29;46521;-83
2023/08/24 07:52:12;;;;;;;1.85;1.38;;;25.90;57.90;;;;;;4863603;29;45469;-82
2023/08/24 07:54:38;;;;;;;2.08;1.63;;;25.90;58.00;;;;;;4876464;29;44649;-84
2023/08/24 07:57:05;;;;;;;2.08;1.88;;;25.90;57.90;;;;;;4871225;28;45567;-81
2023/08/24 07:59:31;;;;;;;1.60;1.40;;;25.90;57.90;;;;;;4899387;28;45510;-84
2023/08/24 08:01:56;;;;;;;2.00;1.58;;;25.90;57.90;;;;;;4867491;29;45245;-82
2023/08/24 08:04:22;;;;;;;1.98;1.40;;;25.90;57.90;;;;;;4870125;29;44897;-84
2023/08/24 08:06:47;;;;;;;1.77;1.45;;;25.90;58.50;;;;;;4852998;29;44690;-81
2023/08/24 08:09:13;;;;;;;1.70;1.50;;;25.90;57.90;;;;;;4865851;29;45206;-84
2023/08/24 08:11:38;;;;;;;1.77;1.50;;;25.90;58.00;;;;;;4881604;28;46120;-81
2023/08/24 08:14:04;;;;;;;2.00;1.75;;;25.90;57.90;;;;;;4861338;28;45306;-84
2023/08/24 08:16:30;;;;;;;2.53;1.30;;;26.00;58.00;;;;;;4867785;29;44795;-84
2023/08/24 08:18:56;;;;;;;1.85;1.55;;;25.90;57.90;;;;;;4866855;28;46881;-84
2023/08/24 08:21:23;;;;;;;2.60;1.63;;;25.90;57.90;;;;;;4850627;29;45642;-80
2023/08/24 08:23:48;;;;;;;2.22;1.50;;;25.90;57.90;;;;;;4870268;29;45311;-82
2023/08/24 08:26:16;;;;;;;2.35;1.70;;;25.90;57.90;;;;;;4866372;29;44859;-82
2023/08/24 08:28:41;;;;;;;2.13;1.60;;;25.90;57.90;;;;;;4880813;29;45370;-81
2023/08/24 08:31:07;;;;;;;1.35;1.20;;;25.90;57.90;;;;;;4876351;28;46299;-83
2023/08/24 08:33:32;;;;;;;2.47;1.50;;;25.90;57.90;;;;;;4886644;28;45509;-87
2023/08/24 08:35:58;;;;;;;1.83;1.40;;;25.90;57.90;;;;;;4854496;29;45280;-84
2023/08/24 08:38:25;;;;;;;1.85;1.45;;;25.90;57.90;;;;;;4899186;29;45788;-81
2023/08/24 08:40:54;;;;;;;1.90;1.60;;;25.90;57.90;;;;;;4866948;28;45403;-83
2023/08/24 08:43:21;;;;;;;1.77;1.50;;;25.90;57.90;;;;;;4885129;29;45557;-81
2023/08/24 08:45:47;;;;;;;2.97;1.60;;;25.90;57.90;;;;;;4864038;28;45171;-82
2023/08/24 08:48:12;;;;;;;1.70;1.60;;;25.90;57.90;;;;;;4876862;29;45461;-82
2023/08/24 08:50:38;;;;;;;3.42;1.50;;;26.00;57.90;;;;;;4875879;29;45496;-81
2023/08/24 08:53:04;;;;;;;4.03;1.67;;;25.90;57.90;;;;;;4880971;29;44739;-81
2023/08/24 08:55:30;;;;;;;1.73;1.30;;;25.90;57.90;;;;;;4876332;29;45288;-82
2023/08/24 08:57:59;;;;;;;2.10;1.40;;;25.90;57.90;;;;;;4846838;29;47002;-85
2023/08/24 09:00:24;;;;;;;1.38;1.20;;;25.90;57.80;;;;;;4870921;28;45311;-81
2023/08/24 09:02:51;;;;;;;2.78;1.52;;;25.90;57.90;;;;;;4862505;29;44804;-84
2023/08/24 09:05:17;;;;;;;1.60;1.40;;;26.00;57.90;;;;;;4892214;28;45338;-83
2023/08/24 09:07:42;;;;;;;1.50;1.40;;;25.90;57.80;;;;;;4883870;29;46348;-84
2023/08/24 09:10:08;;;;;;;2.15;1.55;;;25.90;57.80;;;;;;4873805;29;45223;-83
2023/08/24 09:12:34;;;;;;;2.47;1.20;;;25.90;57.80;;;;;;4872149;29;45504;-84
2023/08/24 09:15:00;;;;;;;1.80;1.60;;;25.90;57.80;;;;;;4897822;28;44743;-84
2023/08/24 09:17:26;;;;;;;1.90;1.55;;;25.90;57.80;;;;;;4857328;28;46194;-84
2023/08/24 09:20:00;;;;;;;1.50;1.27;;;25.90;57.80;;;;;;4896629;28;44894;-83
2023/08/24 09:22:25;;;;;;;1.65;1.40;;;25.90;57.80;;;;;;4859423;29;45135;-83
2023/08/24 09:24:51;;;;;;;1.50;1.33;;;25.90;57.90;;;;;;4865492;29;45552;-83
2023/08/24 09:27:20;;;;;;;1.42;1.30;;;26.00;57.90;;;;;;4863854;29;46693;-82
2023/08/24 09:29:52;;;;;;;1.83;1.50;;;25.90;57.80;;;;;;4881103;28;45046;-83
2023/08/24 09:32:22;;;;;;;1.65;1.55;;;26.00;57.90;;;;;;4871854;29;45376;-82
2023/08/24 09:34:48;;;;;;;2.35;1.50;;;26.00;57.90;;;;;;4874733;29;44750;-83
2023/08/24 09:37:15;;;;;;;1.95;1.52;;;26.00;57.90;;;;;;4849680;28;47957;-83
2023/08/24 09:39:41;;;;;;;1.55;1.40;;;25.90;57.80;;;;;;4870956;29;45179;-83
2023/08/24 09:42:06;;;;;;;2.58;1.60;;;25.90;57.80;;;;;;4877787;29;44772;-84
2023/08/24 09:44:32;;;;;;;1.88;1.52;;;25.90;57.80;;;;;;4869475;29;45488;-81
2023/08/24 09:46:59;;;;;;;1.77;1.38;;;25.90;57.80;;;;;;4857373;29;46250;-83
2023/08/24 09:49:26;;;;;;;1.60;1.50;;;25.90;57.90;;;;;;4863090;29;45450;-83
2023/08/24 09:51:52;;;;;;;1.48;1.38;;;25.90;57.80;;;;;;4881232;28;45461;-82
2023/08/24 09:54:18;;;;;;;1.38;1.17;;;25.90;57.80;;;;;;4867993;29;46748;-83
2023/08/24 09:56:44;;;;;;;2.40;1.40;;;26.00;57.90;;;;;;4851137;28;45576;-81
2023/08/24 09:59:14;;;;;;;1.67;1.42;;;26.00;57.90;;;;;;4882077;29;44782;-83
2023/08/24 10:01:44;;;;;;;1.90;1.67;;;26.00;57.90;;;;;;4861061;29;45442;-82
2023/08/24 10:04:11;;;;;;;3.63;1.40;;;25.90;57.80;;;;;;4888958;28;45572;-83
2023/08/24 10:06:38;;;;;;;1.52;1.40;;;25.90;57.90;;;;;;4861172;28;45300;-83
2023/08/24 10:09:07;;;;;;;1.90;1.45;;;26.00;58.00;;;;;;4861769;29;45612;-84
2023/08/24 10:11:36;;;;;;;1.42;1.33;;;25.90;57.90;;;;;;4879764;29;45471;-82
2023/08/24 10:14:16;;;;;;;1.83;1.48;;;25.90;57.90;;;;;;4900456;28;45333;-82
2023/08/24 10:16:41;;;;;;;1.63;1.52;;;26.00;57.80;;;;;;4860083;29;45536;-82
2023/08/24 10:19:07;;;;;;;1.48;1.33;;;25.90;57.90;;;;;;4891034;28;45106;-84
2023/08/24 10:21:32;;;;;;;1.52;1.30;;;26.00;57.90;;;;;;4875365;29;45440;-83
2023/08/24 10:23:58;;;;;;;3.70;1.60;;;26.00;57.90;;;;;;4855992;29;45484;-83
2023/08/24 10:26:24;;;;;;;1.67;1.40;;;25.90;57.90;;;;;;4893777;29;45517;-82
2023/08/24 10:28:53;;;;;;;1.40;1.30;;;26.00;58.00;;;;;;4869971;28;44608;-82
2023/08/24 10:31:19;;;;;;;2.05;1.60;;;26.00;57.90;;;;;;4880756;29;45266;-84
2023/08/24 10:33:45;;;;;;;2.55;1.52;;;26.00;57.90;;;;;;4882276;29;45476;-85
2023/08/24 10:36:11;;;;;;;1.50;1.40;;;26.00;57.90;;;;;;4864442;29;45969;-81
2023/08/24 10:38:43;;;;;;;1.50;1.15;;;25.90;57.90;;;;;;4855183;29;45520;-81
2023/08/24 10:41:09;;;;;;;1.73;1.35;;;26.00;57.90;;;;;;4853980;28;45393;-82
2023/08/24 10:43:38;;;;;;;2.25;1.35;;;26.00;58.00;;;;;;4881342;29;45412;-82
2023/08/24 10:46:04;;;;;;;1.30;1.20;;;26.00;57.90;;;;;;4843698;29;45422;-82
2023/08/24 10:48:42;;;;;;;3.03;1.45;;;26.00;57.90;;;;;;4863588;29;45277;-84
2023/08/24 10:51:13;;;;;;;1.63;1.33;;;26.00;57.90;;;;;;4879293;28;45073;-83
2023/08/24 10:53:39;;;;;;;2.03;1.10;;;26.00;57.90;;;;;;4870425;29;45422;-82
2023/08/24 10:56:12;;;;;;;1.27;1.17;;;26.00;57.90;;;;;;4891640;29;45667;-85
2023/08/24 10:58:38;;;;;;;2.42;1.38;;;26.00;57.90;;;;;;4866591;29;45037;-85
2023/08/24 11:01:03;;;;;;;1.73;1.20;;;26.00;57.90;;;;;;4871676;28;45388;-81
2023/08/24 11:03:32;;;;;;;1.77;1.45;;;26.00;57.90;;;;;;4865687;29;45581;-82
2023/08/24 11:05:58;;;;;;;1.42;1.20;;;26.00;57.90;;;;;;4877972;29;47007;-83
2023/08/24 11:09:04;;;;;;;1.30;1.20;;;26.00;58.00;;;;;;4865097;29;45250;-82
2023/08/24 11:11:29;;;;;;;1.30;1.20;;;26.00;57.90;;;;;;4873969;28;45781;-82
2023/08/24 11:14:15;;;;;;;1.30;1.20;;;26.00;58.00;;;;;;4885065;29;44883;-85
2023/08/24 11:16:45;;;;;;;2.03;1.50;;;26.00;57.90;;;;;;4872782;29;47287;-81
2023/08/24 11:19:14;;;;;;;1.55;1.45;;;26.00;57.90;;;;;;4858500;29;44729;-81
2023/08/24 11:21:40;;;;;;;2.95;1.55;;;26.00;58.00;;;;;;4867707;29;45146;-85
2023/08/24 11:24:06;;;;;;;1.25;1.10;;;26.00;58.00;;;;;;4875172;29;45635;-83
2023/08/24 11:26:31;;;;;;;2.00;1.45;;;26.00;58.00;;;;;;4875875;29;46715;-83
2023/08/24 11:28:57;;;;;;;2.17;1.42;;;26.00;58.00;;;;;;4861097;28;45352;-85
2023/08/24 11:31:23;;;;;;;2.25;1.45;;;26.00;58.00;;;;;;4893458;28;45639;-83
2023/08/24 11:33:57;;;;;;;1.05;1.00;;;26.00;58.00;;;;;;4894176;28;45514;-83
2023/08/24 11:36:25;;;;;;;1.60;1.30;;;26.00;58.00;;;;;;4866482;29;45486;-83
2023/08/24 11:38:56;;;;;;;2.35;1.17;;;26.00;58.00;;;;;;4867310;29;45490;-81
2023/08/24 11:41:22;;;;;;;1.33;1.23;;;26.10;58.00;;;;;;4868061;29;44753;-81
2023/08/24 11:43:50;;;;;;;1.65;1.40;;;26.00;58.00;;;;;;4864659;28;45257;-87
2023/08/24 11:46:19;;;;;;;1.05;1.02;;;26.00;58.00;;;;;;4865546;29;46861;-82
2023/08/24 11:48:45;;;;;;;2.03;1.33;;;26.00;58.00;;;;;;4848659;29;45264;-84
2023/08/24 11:51:14;;;;;;;1.40;1.30;;;26.10;58.00;;;;;;4869255;29;45472;-85
2023/08/24 11:53:43;;;;;;;1.73;1.20;;;26.00;58.00;;;;;;4867520;29;45393;-83
2023/08/24 11:56:10;;;;;;;1.90;1.60;;;26.00;58.00;;;;;;4842643;29;48401;-82
2023/08/24 11:58:48;;;;;;;1.20;1.10;;;26.00;58.00;;;;;;4852876;29;45435;-81
2023/08/24 12:01:13;;;;;;;1.30;1.20;;;26.00;57.90;;;;;;4859665;28;45355;-85
2023/08/24 12:03:39;;;;;;;2.13;1.45;;;26.00;58.00;;;;;;4851973;29;45471;-83
2023/08/24 12:06:15;;;;;;;1.52;1.30;;;26.00;58.00;;;;;;4877775;28;46581;-85
2023/08/24 12:08:41;;;;;;;1.45;1.35;;;26.10;58.00;;;;;;4880861;29;45302;-81
2023/08/24 12:11:12;;;;;;;1.70;1.38;;;26.00;58.00;;;;;;4886646;23;45444;-46
2023/08/24 12:13:37;;;;;;;1.70;1.40;;;26.00;58.00;;;;;;4864030;29;45508;-46
2023/08/24 12:16:04;;;;;;;1.73;1.33;;;26.00;58.00;;;;;;4853479;28;45963;-45
2023/08/24 12:18:31;;;;;;;1.58;1.30;;;26.10;58.00;;;;;;4856947;28;45369;-46
2023/08/24 12:20:57;;;;;;;1.70;1.23;;;26.10;58.10;;;;;;4856674;28;45678;-46
2023/08/24 12:23:26;;;;;;;1.30;1.20;;;26.00;58.00;;;;;;4862121;29;45641;-47
2023/08/24 12:25:53;;;;;;;2.00;1.55;;;26.00;58.00;;;;;;4847261;29;45903;-45
2023/08/24 12:28:21;;;;;;;3.05;1.60;;;26.00;58.70;;;;;;4840246;29;44869;-47
2023/08/24 12:30:52;;;;;;;1.75;1.30;;;26.00;58.00;;;;;;4818726;29;45352;-47
2023/08/24 12:33:25;;;;;;;1.45;1.35;;;26.00;58.00;;;;;;4851816;29;45251;-46
2023/08/24 12:35:51;;;;;;;1.42;1.30;;;26.00;58.00;;;;;;4848476;29;45304;-46
2023/08/24 12:38:17;;;;;;;1.98;1.08;;;26.10;58.10;;;;;;4846920;29;45454;-46
2023/08/24 12:40:42;;;;;;;1.30;1.20;;;26.10;58.10;;;;;;4835755;29;46864;-48
2023/08/24 12:43:08;;;;;;;1.92;1.60;;;26.00;58.00;;;;;;4862805;29;45573;-47
2023/08/24 12:45:33;;;;;;;1.85;1.30;;;26.10;58.10;;;;;;4842557;29;45870;-46
2023/08/24 12:47:59;;;;;;;1.90;1.30;;;26.00;58.00;;;;;;4828133;29;45598;-46
2023/08/24 12:50:44;;;;;;;1.33;1.20;;;26.10;58.10;;;;;;4813205;29;45500;-47
2023/08/24 12:53:10;;;;;;;1.92;1.27;;;26.00;58.10;;;;;;4856018;29;44684;-46
2023/08/24 12:55:37;;;;;;;2.13;1.35;;;26.00;58.10;;;;;;4848893;29;46165;-46
2023/08/24 12:58:03;;;;;;;1.75;1.33;;;26.00;58.00;;;;;;4864165;29;45260;-45
2023/08/24 13:00:29;;;;;;;1.42;1.20;;;26.00;58.00;;;;;;4823861;29;45571;-46
2023/08/24 13:02:55;;;;;;;1.20;1.10;;;26.10;58.10;;;;;;4849537;29;45264;-46
2023/08/24 13:05:20;;;;;;;1.40;1.27;;;26.00;58.00;;;;;;4829642;29;46224;-45
2023/08/24 13:07:46;;;;;;;1.58;1.17;;;26.10;58.10;;;;;;4861329;29;46204;-44
2023/08/24 13:10:12;;;;;;;1.80;1.40;;;26.10;58.10;;;;;;4847899;28;45010;-47
2023/08/24 13:12:38;;;;;;;1.13;1.02;;;26.10;58.10;;;;;;4843319;29;45640;-46
2023/08/24 13:15:04;;;;;;;1.25;1.10;;;26.00;58.10;;;;;;4858472;29;45310;-48
2023/08/24 13:17:30;;;;;;;1.40;1.30;;;26.00;58.10;;;;;;4811461;29;45323;-45
2023/08/24 13:19:56;;;;;;;2.53;1.30;;;26.00;58.10;;;;;;4847558;29;45440;-44
2023/08/24 13:22:22;;;;;;;1.25;1.15;;;26.10;58.10;;;;;;4826901;29;46438;-45
2023/08/24 13:24:47;;;;;;;1.33;1.20;;;26.00;58.10;;;;;;4858026;29;46304;-45
2023/08/24 13:27:13;;;;;;;1.38;1.27;;;26.10;58.10;;;;;;4832098;29;45125;-46
2023/08/24 13:29:39;;;;;;;1.90;1.48;;;26.10;58.10;;;;;;4843234;29;45597;-46
2023/08/24 13:32:05;;;;;;;1.60;1.50;;;26.00;58.10;;;;;;4829261;29;45705;-45
2023/08/24 13:34:31;;;;;;;1.80;1.35;;;26.10;58.10;;;;;;4847204;29;46167;-44
2023/08/24 13:36:59;;;;;;;1.15;1.08;;;26.10;58.10;;;;;;4846217;29;45332;-45
2023/08/24 13:39:32;;;;;;;1.25;1.15;;;26.10;58.10;;;;;;4857778;29;45129;-45
2023/08/24 13:41:58;;;;;;;1.20;1.10;;;26.10;58.10;;;;;;4848369;29;44671;-45
2023/08/24 13:44:23;;;;;;;1.40;1.27;;;26.10;58.10;;;;;;4844713;29;45316;-44
2023/08/24 13:46:49;;;;;;;2.40;1.58;;;26.10;58.10;;;;;;4835667;29;45637;-45
2023/08/24 13:49:15;;;;;;;1.52;1.33;;;26.10;58.20;;;;;;4861057;29;47266;-45
2023/08/24 13:51:40;;;;;;;1.90;1.35;;;26.10;58.10;;;;;;4845929;29;45557;-46
2023/08/24 13:54:16;;;;;;;1.60;1.20;;;26.00;58.10;;;;;;4830909;29;46046;-45
2023/08/24 13:56:45;;;;;;;1.50;1.40;;;26.10;58.10;;;;;;4845553;29;45611;-48
2023/08/24 13:59:11;;;;;;;1.98;1.80;;;26.10;58.20;;;;;;4876429;28;45053;-45
2023/08/24 14:01:36;;;;;;;1.70;1.33;;;26.10;58.20;;;;;;4836954;29;45431;-45
2023/08/24 14:04:03;;;;;;;1.40;1.23;;;26.10;58.20;;;;;;4863746;29;45443;-46
2023/08/24 14:06:29;;;;;;;1.98;1.27;;;26.10;58.20;;;;;;4828695;29;45137;-49
2023/08/24 14:08:55;;;;;;;1.60;1.45;;;26.10;58.20;;;;;;4857716;29;45196;-45
2023/08/24 14:11:21;;;;;;;1.60;1.30;;;26.10;58.20;;;;;;4848754;29;45371;-47
2023/08/24 14:13:46;;;;;;;1.63;1.33;;;26.10;58.20;;;;;;4859868;29;46116;-45
2023/08/24 14:16:12;;;;;;;1.77;1.48;;;26.00;58.10;;;;;;4824111;29;45221;-46
2023/08/24 14:18:37;;;;;;;1.63;1.30;;;26.10;58.20;;;;;;4834809;29;45208;-45
2023/08/24 14:21:03;;;;;;;1.50;1.40;;;26.00;58.20;;;;;;4833634;29;45075;-45
2023/08/24 14:23:29;;;;;;;1.50;1.40;;;26.10;58.80;;;;;;4856823;29;45339;-47
2023/08/24 14:25:54;;;;;;;1.20;1.10;;;26.10;58.20;;;;;;4850146;29;45737;-45
2023/08/24 14:28:21;;;;;;;1.52;1.30;;;26.10;58.20;;;;;;4845109;29;45408;-48
2023/08/24 14:30:50;;;;;;;2.22;1.40;;;26.10;58.20;;;;;;4836064;29;45255;-45
2023/08/24 14:33:16;;;;;;;2.70;1.40;;;26.10;58.20;;;;;;4858134;29;45159;-47
2023/08/24 14:35:48;;;;;;;1.20;1.10;;;26.10;58.20;;;;;;4843497;29;45228;-48
2023/08/24 14:38:14;;;;;;;3.45;1.45;;;26.10;58.20;;;;;;4848114;29;45439;-46
2023/08/24 14:40:39;;;;;;;1.40;1.30;;;26.00;58.20;;;;;;4842145;29;44906;-45
2023/08/24 14:43:05;;;;;;;1.67;1.58;;;26.10;58.20;;;;;;4864140;29;46068;-45
2023/08/24 14:45:30;;;;;;;1.20;1.10;;;26.10;58.20;;;;;;4839957;29;44896;-45
2023/08/24 14:47:56;;;;;;;1.60;1.50;;;26.10;58.20;;;;;;4850223;29;45766;-46
2023/08/24 14:50:22;;;;;;;1.67;1.33;;;26.10;58.20;;;;;;4841246;29;45620;-47
2023/08/24 14:52:47;;;;;;;1.63;1.48;;;26.00;58.20;;;;;;4857535;29;45795;-46
2023/08/24 14:55:13;;;;;;;1.30;1.20;;;26.10;58.20;;;;;;4848845;29;45163;-48
2023/08/24 14:57:39;;;;;;;1.85;1.50;;;26.00;58.20;;;;;;4856504;29;45519;-45
2023/08/24 15:00:09;;;;;;;1.40;1.30;;;26.10;58.20;;;;;;4847452;29;46172;-48
2023/08/24 15:02:36;;;;;;;1.52;1.20;;;26.10;58.20;;;;;;4843618;29;45936;-46
2023/08/24 15:05:05;;;;;;;1.67;1.58;;;26.10;58.30;;;;;;4860678;29;44927;-48
2023/08/24 15:07:31;;;;;;;1.40;1.23;;;26.10;58.30;;;;;;4857152;29;45993;-45
2023/08/24 15:09:56;;;;;;;1.92;1.50;;;26.10;58.30;;;;;;4852107;29;45575;-46
2023/08/24 15:12:23;;;;;;;1.73;1.52;;;26.10;58.30;;;;;;4848860;29;46339;-46
2023/08/24 15:14:59;;;;;;;2.13;1.50;;;26.10;58.30;;;;;;4859989;29;45292;-45
2023/08/24 15:17:24;;;;;;;1.85;1.55;;;26.10;58.20;;;;;;4842414;29;45302;-45
2023/08/24 15:19:50;;;;;;;2.20;1.23;;;26.10;58.30;;;;;;4862220;29;45342;-48
2023/08/24 15:22:15;;;;;;;2.13;1.63;;;26.10;58.30;;;;;;4839356;29;45575;-48
2023/08/24 15:24:42;;;;;;;1.50;1.40;;;26.10;58.30;;;;;;4851240;29;45360;-48
2023/08/24 15:27:07;;;;;;;1.58;1.38;;;26.10;58.30;;;;;;4853673;29;45195;-45
2023/08/24 15:29:33;;;;;;;2.17;1.75;;;26.10;58.30;;;;;;4858034;29;44789;-45
2023/08/24 15:31:59;;;;;;;1.50;1.40;;;26.10;58.30;;;;;;4810671;29;47133;-46
2023/08/24 15:34:24;;;;;;;1.67;1.58;;;26.10;58.30;;;;;;4857750;29;45053;-44
2023/08/24 15:36:50;;;;;;;1.70;1.60;;;26.10;58.30;;;;;;4851332;29;45220;-46
2023/08/24 15:39:15;;;;;;;1.55;1.42;;;26.10;58.30;;;;;;4870542;29;45887;-45
2023/08/24 15:41:41;;;;;;;3.53;1.50;;;26.10;58.30;;;;;;4849331;29;45481;-46
2023/08/24 15:44:06;;;;;;;1.52;1.42;;;26.10;58.40;;;;;;4850470;29;45503;-45
2023/08/24 15:46:32;;;;;;;1.70;1.60;;;26.10;58.30;;;;;;4834832;29;45330;-44